sensor_id;sensor_type;location;lat;lon;timestamp;P1;durP1;ratioP1;P2;durP2;ratioP2
801;SDS011;383;48.766;9.270;2023-08-01T00:00:08;10.90;;;4.80;;
801;SDS011;383;48.766;9.270;2023-08-01T00:02:36;19.10;;;5.03;;
801;SDS011;383;48.766;9.270;2023-08-01T00:05:03;12.87;;;5.10;;
801;SDS011;383;48.766;9.270;2023-08-01T00:07:30;9.27;;;5.07;;
801;SDS011;383;48.766;9.270;2023-08-01T00:09:57;11.13;;;4.70;;
801;SDS011;383;48.766;9.270;2023-08-01T00:12:24;10.77;;;4.67;;
801;SDS011;383;48.766;9.270;2023-08-01T00:14:52;9.90;;;4.73;;
801;SDS011;383;48.766;9.270;2023-08-01T00:17:19;10.53;;;5.07;;
801;SDS011;383;48.766;9.270;2023-08-01T00:19:46;9.23;;;4.40;;
801;SDS011;383;48.766;9.270;2023-08-01T00:22:12;14.70;;;6.57;;
801;SDS011;383;48.766;9.270;2023-08-01T00:24:39;8.67;;;4.30;;
801;SDS011;383;48.766;9.270;2023-08-01T00:27:06;12.53;;;4.67;;
801;SDS011;383;48.766;9.270;2023-08-01T00:29:34;8.70;;;5.50;;
801;SDS011;383;48.766;9.270;2023-08-01T00:32:03;8.70;;;5.47;;
801;SDS011;383;48.766;9.270;2023-08-01T00:34:30;10.57;;;5.33;;
801;SDS011;383;48.766;9.270;2023-08-01T00:36:57;11.23;;;4.90;;
801;SDS011;383;48.766;9.270;2023-08-01T00:39:23;9.53;;;4.73;;
801;SDS011;383;48.766;9.270;2023-08-01T00:41:50;9.60;;;4.90;;
801;SDS011;383;48.766;9.270;2023-08-01T00:44:17;11.37;;;5.07;;
801;SDS011;383;48.766;9.270;2023-08-01T00:46:43;10.70;;;5.10;;
801;SDS011;383;48.766;9.270;2023-08-01T00:49:12;8.30;;;4.13;;
801;SDS011;383;48.766;9.270;2023-08-01T00:51:39;11.30;;;5.63;;
801;SDS011;383;48.766;9.270;2023-08-01T00:54:06;11.23;;;5.30;;
801;SDS011;383;48.766;9.270;2023-08-01T00:56:33;8.60;;;4.80;;
801;SDS011;383;48.766;9.270;2023-08-01T00:59:00;12.67;;;5.40;;
801;SDS011;383;48.766;9.270;2023-08-01T01:01:27;15.67;;;5.87;;
801;SDS011;383;48.766;9.270;2023-08-01T01:03:54;9.13;;;5.83;;
801;SDS011;383;48.766;9.270;2023-08-01T01:06:24;9.97;;;5.20;;
801;SDS011;383;48.766;9.270;2023-08-01T01:08:54;9.00;;;4.87;;
801;SDS011;383;48.766;9.270;2023-08-01T01:11:21;12.63;;;4.57;;
801;SDS011;383;48.766;9.270;2023-08-01T01:13:48;6.70;;;4.90;;
801;SDS011;383;48.766;9.270;2023-08-01T01:16:17;12.53;;;5.07;;
801;SDS011;383;48.766;9.270;2023-08-01T01:18:44;13.00;;;4.30;;
801;SDS011;383;48.766;9.270;2023-08-01T01:21:12;10.27;;;4.67;;
801;SDS011;383;48.766;9.270;2023-08-01T01:23:39;9.13;;;4.60;;
801;SDS011;383;48.766;9.270;2023-08-01T01:26:06;8.47;;;4.63;;
801;SDS011;383;48.766;9.270;2023-08-01T01:28:34;8.90;;;5.57;;
801;SDS011;383;48.766;9.270;2023-08-01T01:31:02;8.43;;;4.47;;
801;SDS011;383;48.766;9.270;2023-08-01T01:33:29;6.57;;;4.30;;
801;SDS011;383;48.766;9.270;2023-08-01T01:35:56;9.03;;;4.80;;
801;SDS011;383;48.766;9.270;2023-08-01T01:38:24;11.13;;;4.57;;
801;SDS011;383;48.766;9.270;2023-08-01T01:40:51;9.90;;;4.17;;
801;SDS011;383;48.766;9.270;2023-08-01T01:43:18;7.50;;;3.80;;
801;SDS011;383;48.766;9.270;2023-08-01T01:45:44;10.93;;;4.47;;
801;SDS011;383;48.766;9.270;2023-08-01T01:48:11;10.13;;;4.30;;
801;SDS011;383;48.766;9.270;2023-08-01T01:50:37;11.77;;;4.70;;
801;SDS011;383;48.766;9.270;2023-08-01T01:53:04;9.30;;;4.90;;
801;SDS011;383;48.766;9.270;2023-08-01T01:55:32;12.63;;;5.00;;
801;SDS011;383;48.766;9.270;2023-08-01T01:57:59;11.63;;;5.40;;
801;SDS011;383;48.766;9.270;2023-08-01T02:00:26;12.10;;;5.30;;
801;SDS011;383;48.766;9.270;2023-08-01T02:02:53;8.40;;;4.93;;
801;SDS011;383;48.766;9.270;2023-08-01T02:05:19;7.43;;;4.33;;
801;SDS011;383;48.766;9.270;2023-08-01T02:07:46;11.43;;;4.87;;
801;SDS011;383;48.766;9.270;2023-08-01T02:10:12;7.13;;;4.23;;
801;SDS011;383;48.766;9.270;2023-08-01T02:12:41;10.13;;;5.53;;
801;SDS011;383;48.766;9.270;2023-08-01T02:15:07;7.53;;;4.50;;
801;SDS011;383;48.766;9.270;2023-08-01T02:17:34;8.87;;;4.80;;
801;SDS011;383;48.766;9.270;2023-08-01T02:20:01;8.77;;;4.50;;
801;SDS011;383;48.766;9.270;2023-08-01T02:22:28;6.77;;;4.30;;
801;SDS011;383;48.766;9.270;2023-08-01T02:24:55;10.37;;;5.03;;
801;SDS011;383;48.766;9.270;2023-08-01T02:27:21;8.07;;;4.33;;
801;SDS011;383;48.766;9.270;2023-08-01T02:29:50;8.50;;;5.20;;
801;SDS011;383;48.766;9.270;2023-08-01T02:32:16;7.27;;;4.00;;
801;SDS011;383;48.766;9.270;2023-08-01T02:34:43;11.20;;;5.17;;
801;SDS011;383;48.766;9.270;2023-08-01T02:37:10;7.80;;;4.80;;
801;SDS011;383;48.766;9.270;2023-08-01T02:39:36;9.17;;;4.27;;
801;SDS011;383;48.766;9.270;2023-08-01T02:42:03;7.73;;;4.80;;
801;SDS011;383;48.766;9.270;2023-08-01T02:44:30;6.10;;;4.20;;
801;SDS011;383;48.766;9.270;2023-08-01T02:46:58;10.47;;;4.40;;
801;SDS011;383;48.766;9.270;2023-08-01T02:49:25;6.97;;;4.60;;
801;SDS011;383;48.766;9.270;2023-08-01T02:51:51;10.97;;;4.60;;
801;SDS011;383;48.766;9.270;2023-08-01T02:54:18;14.03;;;4.43;;
801;SDS011;383;48.766;9.270;2023-08-01T02:56:45;13.03;;;5.53;;
801;SDS011;383;48.766;9.270;2023-08-01T02:59:11;7.70;;;4.13;;
801;SDS011;383;48.766;9.270;2023-08-01T03:01:38;9.90;;;5.00;;
801;SDS011;383;48.766;9.270;2023-08-01T03:04:06;15.13;;;4.67;;
801;SDS011;383;48.766;9.270;2023-08-01T03:06:33;9.70;;;4.80;;
801;SDS011;383;48.766;9.270;2023-08-01T03:09:00;12.60;;;6.30;;
801;SDS011;383;48.766;9.270;2023-08-01T03:11:27;8.00;;;5.20;;
801;SDS011;383;48.766;9.270;2023-08-01T03:13:54;9.73;;;5.47;;
801;SDS011;383;48.766;9.270;2023-08-01T03:16:20;9.40;;;5.20;;
801;SDS011;383;48.766;9.270;2023-08-01T03:18:47;10.60;;;4.70;;
801;SDS011;383;48.766;9.270;2023-08-01T03:21:15;9.30;;;4.80;;
801;SDS011;383;48.766;9.270;2023-08-01T03:23:42;10.53;;;4.67;;
801;SDS011;383;48.766;9.270;2023-08-01T03:26:09;10.07;;;4.60;;
801;SDS011;383;48.766;9.270;2023-08-01T03:28:36;8.83;;;4.10;;
801;SDS011;383;48.766;9.270;2023-08-01T03:31:02;10.00;;;4.40;;
801;SDS011;383;48.766;9.270;2023-08-01T03:33:29;6.17;;;4.10;;
801;SDS011;383;48.766;9.270;2023-08-01T03:35:56;11.40;;;3.67;;
801;SDS011;383;48.766;9.270;2023-08-01T03:38:24;8.33;;;5.47;;
801;SDS011;383;48.766;9.270;2023-08-01T03:40:50;7.10;;;3.83;;
801;SDS011;383;48.766;9.270;2023-08-01T03:43:17;5.57;;;3.40;;
801;SDS011;383;48.766;9.270;2023-08-01T03:45:48;8.47;;;4.20;;
801;SDS011;383;48.766;9.270;2023-08-01T03:48:15;7.20;;;4.00;;
801;SDS011;383;48.766;9.270;2023-08-01T03:50:41;7.77;;;4.23;;
801;SDS011;383;48.766;9.270;2023-08-01T03:53:08;10.23;;;5.30;;
801;SDS011;383;48.766;9.270;2023-08-01T03:55:36;9.70;;;4.53;;
801;SDS011;383;48.766;9.270;2023-08-01T03:58:03;15.03;;;6.30;;
801;SDS011;383;48.766;9.270;2023-08-01T04:00:30;12.37;;;6.67;;
801;SDS011;383;48.766;9.270;2023-08-01T04:02:57;9.83;;;6.33;;
801;SDS011;383;48.766;9.270;2023-08-01T04:05:24;7.73;;;5.13;;
801;SDS011;383;48.766;9.270;2023-08-01T04:07:51;7.70;;;3.80;;
801;SDS011;383;48.766;9.270;2023-08-01T04:10:19;7.53;;;4.60;;
801;SDS011;383;48.766;9.270;2023-08-01T04:12:47;9.23;;;5.00;;
801;SDS011;383;48.766;9.270;2023-08-01T04:15:14;8.07;;;6.37;;
801;SDS011;383;48.766;9.270;2023-08-01T04:17:41;8.10;;;4.70;;
801;SDS011;383;48.766;9.270;2023-08-01T04:20:08;15.83;;;4.93;;
801;SDS011;383;48.766;9.270;2023-08-01T04:22:35;9.63;;;4.53;;
801;SDS011;383;48.766;9.270;2023-08-01T04:25:01;7.77;;;4.80;;
801;SDS011;383;48.766;9.270;2023-08-01T04:27:28;7.10;;;4.43;;
801;SDS011;383;48.766;9.270;2023-08-01T04:29:56;10.97;;;5.20;;
801;SDS011;383;48.766;9.270;2023-08-01T04:32:23;7.20;;;4.30;;
801;SDS011;383;48.766;9.270;2023-08-01T04:34:50;12.27;;;4.63;;
801;SDS011;383;48.766;9.270;2023-08-01T04:37:16;8.20;;;4.13;;
801;SDS011;383;48.766;9.270;2023-08-01T04:39:45;6.63;;;4.00;;
801;SDS011;383;48.766;9.270;2023-08-01T04:42:12;7.10;;;3.50;;
801;SDS011;383;48.766;9.270;2023-08-01T04:44:39;9.97;;;3.67;;
801;SDS011;383;48.766;9.270;2023-08-01T04:47:07;5.73;;;3.87;;
801;SDS011;383;48.766;9.270;2023-08-01T04:49:33;6.67;;;4.23;;
801;SDS011;383;48.766;9.270;2023-08-01T04:52:00;14.73;;;4.00;;
801;SDS011;383;48.766;9.270;2023-08-01T04:54:27;6.90;;;3.90;;
801;SDS011;383;48.766;9.270;2023-08-01T04:56:54;11.53;;;4.60;;
801;SDS011;383;48.766;9.270;2023-08-01T04:59:20;8.10;;;3.93;;
801;SDS011;383;48.766;9.270;2023-08-01T05:01:47;10.63;;;4.20;;
801;SDS011;383;48.766;9.270;2023-08-01T05:04:15;5.30;;;3.60;;
801;SDS011;383;48.766;9.270;2023-08-01T05:06:42;5.63;;;3.30;;
801;SDS011;383;48.766;9.270;2023-08-01T05:09:08;9.73;;;4.70;;
801;SDS011;383;48.766;9.270;2023-08-01T05:11:35;6.63;;;3.80;;
801;SDS011;383;48.766;9.270;2023-08-01T05:14:01;9.60;;;3.83;;
801;SDS011;383;48.766;9.270;2023-08-01T05:16:28;7.77;;;4.20;;
801;SDS011;383;48.766;9.270;2023-08-01T05:18:55;10.83;;;4.37;;
801;SDS011;383;48.766;9.270;2023-08-01T05:21:23;9.50;;;4.50;;
801;SDS011;383;48.766;9.270;2023-08-01T05:23:50;11.07;;;4.50;;
801;SDS011;383;48.766;9.270;2023-08-01T05:26:17;10.10;;;4.07;;
801;SDS011;383;48.766;9.270;2023-08-01T05:28:43;8.97;;;3.60;;
801;SDS011;383;48.766;9.270;2023-08-01T05:31:10;13.30;;;4.70;;
801;SDS011;383;48.766;9.270;2023-08-01T05:33:37;10.43;;;5.40;;
801;SDS011;383;48.766;9.270;2023-08-01T05:36:03;5.53;;;3.00;;
801;SDS011;383;48.766;9.270;2023-08-01T05:38:32;10.20;;;4.10;;
801;SDS011;383;48.766;9.270;2023-08-01T05:40:58;8.47;;;4.23;;
801;SDS011;383;48.766;9.270;2023-08-01T05:43:25;6.57;;;4.30;;
801;SDS011;383;48.766;9.270;2023-08-01T05:45:52;13.10;;;4.13;;
801;SDS011;383;48.766;9.270;2023-08-01T05:48:19;7.20;;;3.93;;
801;SDS011;383;48.766;9.270;2023-08-01T05:50:45;7.30;;;4.97;;
801;SDS011;383;48.766;9.270;2023-08-01T05:53:12;8.27;;;4.23;;
801;SDS011;383;48.766;9.270;2023-08-01T05:55:42;12.50;;;4.50;;
801;SDS011;383;48.766;9.270;2023-08-01T05:58:08;7.47;;;4.70;;
801;SDS011;383;48.766;9.270;2023-08-01T06:00:35;15.70;;;5.17;;
801;SDS011;383;48.766;9.270;2023-08-01T06:03:02;10.27;;;5.23;;
801;SDS011;383;48.766;9.270;2023-08-01T06:05:35;10.73;;;4.37;;
801;SDS011;383;48.766;9.270;2023-08-01T06:08:02;8.33;;;4.80;;
801;SDS011;383;48.766;9.270;2023-08-01T06:10:29;7.93;;;4.43;;
801;SDS011;383;48.766;9.270;2023-08-01T06:12:57;10.50;;;5.00;;
801;SDS011;383;48.766;9.270;2023-08-01T06:15:24;8.80;;;4.60;;
801;SDS011;383;48.766;9.270;2023-08-01T06:17:51;8.40;;;4.90;;
801;SDS011;383;48.766;9.270;2023-08-01T06:20:19;11.60;;;4.90;;
801;SDS011;383;48.766;9.270;2023-08-01T06:22:46;12.40;;;5.17;;
801;SDS011;383;48.766;9.270;2023-08-01T06:25:12;18.43;;;6.30;;
801;SDS011;383;48.766;9.270;2023-08-01T06:27:39;8.77;;;4.50;;
801;SDS011;383;48.766;9.270;2023-08-01T06:30:07;10.30;;;4.60;;
801;SDS011;383;48.766;9.270;2023-08-01T06:32:35;8.97;;;4.33;;
801;SDS011;383;48.766;9.270;2023-08-01T06:35:01;8.80;;;4.73;;
801;SDS011;383;48.766;9.270;2023-08-01T06:37:28;15.80;;;5.73;;
801;SDS011;383;48.766;9.270;2023-08-01T06:39:55;7.57;;;4.53;;
801;SDS011;383;48.766;9.270;2023-08-01T06:42:22;11.73;;;4.83;;
801;SDS011;383;48.766;9.270;2023-08-01T06:44:49;8.03;;;4.37;;
801;SDS011;383;48.766;9.270;2023-08-01T06:47:17;10.83;;;5.07;;
801;SDS011;383;48.766;9.270;2023-08-01T06:49:44;8.03;;;4.63;;
801;SDS011;383;48.766;9.270;2023-08-01T06:52:11;15.73;;;5.40;;
801;SDS011;383;48.766;9.270;2023-08-01T06:54:37;10.00;;;5.17;;
801;SDS011;383;48.766;9.270;2023-08-01T06:57:04;17.53;;;4.97;;
801;SDS011;383;48.766;9.270;2023-08-01T06:59:32;12.00;;;6.30;;
801;SDS011;383;48.766;9.270;2023-08-01T07:01:59;12.40;;;5.90;;
801;SDS011;383;48.766;9.270;2023-08-01T07:04:27;11.17;;;5.30;;
801;SDS011;383;48.766;9.270;2023-08-01T07:06:54;12.77;;;5.93;;
801;SDS011;383;48.766;9.270;2023-08-01T07:09:21;13.20;;;6.10;;
801;SDS011;383;48.766;9.270;2023-08-01T07:11:47;11.17;;;5.70;;
801;SDS011;383;48.766;9.270;2023-08-01T07:14:15;9.90;;;5.90;;
801;SDS011;383;48.766;9.270;2023-08-01T07:16:42;12.63;;;6.80;;
801;SDS011;383;48.766;9.270;2023-08-01T07:19:08;10.73;;;5.80;;
801;SDS011;383;48.766;9.270;2023-08-01T07:21:37;11.10;;;6.10;;
801;SDS011;383;48.766;9.270;2023-08-01T07:24:04;16.00;;;6.23;;
801;SDS011;383;48.766;9.270;2023-08-01T07:26:31;10.03;;;6.40;;
801;SDS011;383;48.766;9.270;2023-08-01T07:28:57;10.23;;;5.63;;
801;SDS011;383;48.766;9.270;2023-08-01T07:31:24;10.77;;;5.63;;
801;SDS011;383;48.766;9.270;2023-08-01T07:33:51;12.37;;;6.00;;
801;SDS011;383;48.766;9.270;2023-08-01T07:36:18;10.80;;;5.70;;
801;SDS011;383;48.766;9.270;2023-08-01T07:38:48;12.43;;;6.57;;
801;SDS011;383;48.766;9.270;2023-08-01T07:41:14;12.37;;;6.00;;
801;SDS011;383;48.766;9.270;2023-08-01T07:43:41;11.20;;;5.23;;
801;SDS011;383;48.766;9.270;2023-08-01T07:46:08;10.23;;;5.57;;
801;SDS011;383;48.766;9.270;2023-08-01T07:48:36;14.43;;;5.80;;
801;SDS011;383;48.766;9.270;2023-08-01T07:51:03;15.70;;;8.40;;
801;SDS011;383;48.766;9.270;2023-08-01T07:53:30;10.13;;;5.80;;
801;SDS011;383;48.766;9.270;2023-08-01T07:55:59;15.10;;;6.50;;
801;SDS011;383;48.766;9.270;2023-08-01T07:58:27;15.03;;;5.73;;
801;SDS011;383;48.766;9.270;2023-08-01T08:00:54;12.33;;;7.20;;
801;SDS011;383;48.766;9.270;2023-08-01T08:03:20;8.90;;;4.40;;
801;SDS011;383;48.766;9.270;2023-08-01T08:05:48;13.50;;;5.53;;
801;SDS011;383;48.766;9.270;2023-08-01T08:08:15;11.03;;;5.93;;
801;SDS011;383;48.766;9.270;2023-08-01T08:10:42;11.60;;;4.80;;
801;SDS011;383;48.766;9.270;2023-08-01T08:13:10;8.73;;;4.40;;
801;SDS011;383;48.766;9.270;2023-08-01T08:15:36;9.57;;;5.00;;
801;SDS011;383;48.766;9.270;2023-08-01T08:18:03;8.23;;;4.57;;
801;SDS011;383;48.766;9.270;2023-08-01T08:20:30;11.50;;;4.60;;
801;SDS011;383;48.766;9.270;2023-08-01T08:22:57;10.57;;;4.73;;
801;SDS011;383;48.766;9.270;2023-08-01T08:25:23;7.97;;;4.37;;
801;SDS011;383;48.766;9.270;2023-08-01T08:27:50;7.97;;;3.70;;
801;SDS011;383;48.766;9.270;2023-08-01T08:30:18;9.23;;;4.80;;
801;SDS011;383;48.766;9.270;2023-08-01T08:32:45;10.37;;;4.47;;
801;SDS011;383;48.766;9.270;2023-08-01T08:35:12;10.70;;;5.33;;
801;SDS011;383;48.766;9.270;2023-08-01T08:37:38;10.80;;;4.83;;
801;SDS011;383;48.766;9.270;2023-08-01T08:40:05;7.03;;;3.67;;
801;SDS011;383;48.766;9.270;2023-08-01T08:42:33;6.80;;;3.90;;
801;SDS011;383;48.766;9.270;2023-08-01T08:45:01;14.73;;;5.00;;
801;SDS011;383;48.766;9.270;2023-08-01T08:47:29;6.90;;;4.07;;
801;SDS011;383;48.766;9.270;2023-08-01T08:49:58;8.00;;;4.40;;
801;SDS011;383;48.766;9.270;2023-08-01T08:52:25;14.13;;;5.13;;
801;SDS011;383;48.766;9.270;2023-08-01T08:54:52;8.57;;;4.90;;
801;SDS011;383;48.766;9.270;2023-08-01T08:57:19;12.70;;;5.90;;
801;SDS011;383;48.766;9.270;2023-08-01T08:59:47;9.33;;;4.40;;
801;SDS011;383;48.766;9.270;2023-08-01T09:02:14;9.13;;;4.37;;
801;SDS011;383;48.766;9.270;2023-08-01T09:04:43;10.87;;;4.53;;
801;SDS011;383;48.766;9.270;2023-08-01T09:07:10;8.27;;;4.37;;
801;SDS011;383;48.766;9.270;2023-08-01T09:09:40;7.80;;;4.70;;
801;SDS011;383;48.766;9.270;2023-08-01T09:12:07;8.10;;;4.20;;
801;SDS011;383;48.766;9.270;2023-08-01T09:14:35;4.97;;;3.23;;
801;SDS011;383;48.766;9.270;2023-08-01T09:17:05;12.90;;;3.73;;
801;SDS011;383;48.766;9.270;2023-08-01T09:19:33;6.90;;;3.70;;
801;SDS011;383;48.766;9.270;2023-08-01T09:22:01;7.43;;;3.50;;
801;SDS011;383;48.766;9.270;2023-08-01T09:24:28;11.20;;;3.47;;
801;SDS011;383;48.766;9.270;2023-08-01T09:27:01;4.90;;;2.77;;
801;SDS011;383;48.766;9.270;2023-08-01T09:29:30;4.33;;;2.90;;
801;SDS011;383;48.766;9.270;2023-08-01T09:31:57;7.37;;;3.07;;
801;SDS011;383;48.766;9.270;2023-08-01T09:34:26;6.17;;;3.63;;
801;SDS011;383;48.766;9.270;2023-08-01T09:36:57;6.70;;;3.00;;
801;SDS011;383;48.766;9.270;2023-08-01T09:39:26;5.90;;;3.30;;
801;SDS011;383;48.766;9.270;2023-08-01T09:41:56;8.23;;;3.77;;
801;SDS011;383;48.766;9.270;2023-08-01T09:44:24;7.97;;;2.70;;
801;SDS011;383;48.766;9.270;2023-08-01T09:46:56;5.83;;;2.93;;
801;SDS011;383;48.766;9.270;2023-08-01T09:49:23;7.27;;;3.33;;
801;SDS011;383;48.766;9.270;2023-08-01T09:51:50;4.07;;;2.30;;
801;SDS011;383;48.766;9.270;2023-08-01T09:54:17;4.60;;;2.37;;
801;SDS011;383;48.766;9.270;2023-08-01T09:56:47;6.93;;;2.87;;
801;SDS011;383;48.766;9.270;2023-08-01T09:59:15;5.10;;;2.73;;
801;SDS011;383;48.766;9.270;2023-08-01T10:01:45;3.20;;;2.10;;
801;SDS011;383;48.766;9.270;2023-08-01T10:04:13;4.00;;;2.53;;
801;SDS011;383;48.766;9.270;2023-08-01T10:06:41;11.77;;;2.20;;
801;SDS011;383;48.766;9.270;2023-08-01T10:09:12;4.00;;;2.10;;
801;SDS011;383;48.766;9.270;2023-08-01T10:11:40;3.00;;;1.90;;
801;SDS011;383;48.766;9.270;2023-08-01T10:14:09;3.10;;;1.80;;
801;SDS011;383;48.766;9.270;2023-08-01T10:16:36;3.50;;;1.50;;
801;SDS011;383;48.766;9.270;2023-08-01T10:19:04;3.97;;;2.13;;
801;SDS011;383;48.766;9.270;2023-08-01T10:21:33;2.23;;;1.60;;
801;SDS011;383;48.766;9.270;2023-08-01T10:24:00;4.33;;;1.83;;
801;SDS011;383;48.766;9.270;2023-08-01T10:26:29;4.83;;;1.90;;
801;SDS011;383;48.766;9.270;2023-08-01T10:28:56;2.80;;;1.63;;
801;SDS011;383;48.766;9.270;2023-08-01T10:31:26;2.57;;;1.47;;
801;SDS011;383;48.766;9.270;2023-08-01T10:34:02;6.50;;;1.93;;
801;SDS011;383;48.766;9.270;2023-08-01T10:36:30;2.57;;;1.87;;
801;SDS011;383;48.766;9.270;2023-08-01T10:38:58;8.30;;;1.57;;
801;SDS011;383;48.766;9.270;2023-08-01T10:41:26;4.20;;;1.97;;
801;SDS011;383;48.766;9.270;2023-08-01T10:44:04;3.70;;;2.07;;
801;SDS011;383;48.766;9.270;2023-08-01T10:46:46;3.50;;;2.10;;
801;SDS011;383;48.766;9.270;2023-08-01T10:49:13;7.43;;;1.50;;
801;SDS011;383;48.766;9.270;2023-08-01T10:51:40;3.63;;;1.73;;
801;SDS011;383;48.766;9.270;2023-08-01T10:54:07;2.07;;;1.40;;
801;SDS011;383;48.766;9.270;2023-08-01T10:56:45;2.53;;;1.80;;
801;SDS011;383;48.766;9.270;2023-08-01T10:59:12;1.67;;;1.10;;
801;SDS011;383;48.766;9.270;2023-08-01T11:01:43;1.70;;;1.20;;
801;SDS011;383;48.766;9.270;2023-08-01T11:04:16;2.10;;;1.30;;
801;SDS011;383;48.766;9.270;2023-08-01T11:06:44;2.43;;;1.33;;
801;SDS011;383;48.766;9.270;2023-08-01T11:09:15;3.37;;;1.70;;
801;SDS011;383;48.766;9.270;2023-08-01T11:11:47;8.43;;;2.70;;
801;SDS011;383;48.766;9.270;2023-08-01T11:14:15;2.00;;;1.20;;
801;SDS011;383;48.766;9.270;2023-08-01T11:16:46;2.10;;;1.17;;
801;SDS011;383;48.766;9.270;2023-08-01T11:19:20;0.93;;;0.90;;
801;SDS011;383;48.766;9.270;2023-08-01T11:21:49;2.60;;;1.50;;
801;SDS011;383;48.766;9.270;2023-08-01T11:24:17;1.73;;;1.10;;
801;SDS011;383;48.766;9.270;2023-08-01T11:26:44;1.83;;;1.00;;
801;SDS011;383;48.766;9.270;2023-08-01T11:29:13;3.83;;;1.50;;
801;SDS011;383;48.766;9.270;2023-08-01T11:31:40;2.20;;;1.30;;
801;SDS011;383;48.766;9.270;2023-08-01T11:34:09;1.40;;;1.40;;
801;SDS011;383;48.766;9.270;2023-08-01T11:36:35;2.50;;;1.70;;
801;SDS011;383;48.766;9.270;2023-08-01T11:39:03;2.67;;;1.20;;
801;SDS011;383;48.766;9.270;2023-08-01T11:41:30;4.40;;;1.10;;
801;SDS011;383;48.766;9.270;2023-08-01T11:44:01;3.10;;;1.90;;
801;SDS011;383;48.766;9.270;2023-08-01T11:46:30;4.70;;;1.70;;
801;SDS011;383;48.766;9.270;2023-08-01T11:48:57;1.90;;;1.20;;
801;SDS011;383;48.766;9.270;2023-08-01T11:51:26;2.37;;;1.13;;
801;SDS011;383;48.766;9.270;2023-08-01T11:53:57;3.50;;;1.97;;
801;SDS011;383;48.766;9.270;2023-08-01T11:56:25;2.57;;;1.40;;
801;SDS011;383;48.766;9.270;2023-08-01T11:58:52;4.30;;;1.30;;
801;SDS011;383;48.766;9.270;2023-08-01T12:01:18;2.80;;;1.60;;
801;SDS011;383;48.766;9.270;2023-08-01T12:03:46;3.77;;;1.60;;
801;SDS011;383;48.766;9.270;2023-08-01T12:06:14;2.87;;;1.83;;
801;SDS011;383;48.766;9.270;2023-08-01T12:08:43;3.73;;;1.50;;
801;SDS011;383;48.766;9.270;2023-08-01T12:11:17;1.87;;;1.30;;
801;SDS011;383;48.766;9.270;2023-08-01T12:13:45;3.53;;;1.63;;
801;SDS011;383;48.766;9.270;2023-08-01T12:16:12;5.30;;;1.80;;
801;SDS011;383;48.766;9.270;2023-08-01T12:18:40;2.20;;;1.37;;
801;SDS011;383;48.766;9.270;2023-08-01T12:21:09;7.63;;;1.30;;
801;SDS011;383;48.766;9.270;2023-08-01T12:23:36;3.60;;;1.60;;
801;SDS011;383;48.766;9.270;2023-08-01T12:26:04;3.73;;;1.70;;
801;SDS011;383;48.766;9.270;2023-08-01T12:28:32;2.67;;;1.43;;
801;SDS011;383;48.766;9.270;2023-08-01T12:30:59;13.13;;;2.40;;
801;SDS011;383;48.766;9.270;2023-08-01T12:33:25;1.47;;;1.23;;
801;SDS011;383;48.766;9.270;2023-08-01T12:35:52;4.03;;;1.90;;
801;SDS011;383;48.766;9.270;2023-08-01T12:38:19;3.20;;;1.93;;
801;SDS011;383;48.766;9.270;2023-08-01T12:40:45;2.77;;;1.50;;
801;SDS011;383;48.766;9.270;2023-08-01T12:43:13;3.73;;;1.90;;
801;SDS011;383;48.766;9.270;2023-08-01T12:45:41;5.90;;;1.40;;
801;SDS011;383;48.766;9.270;2023-08-01T12:48:08;2.10;;;1.13;;
801;SDS011;383;48.766;9.270;2023-08-01T12:50:35;3.87;;;1.23;;
801;SDS011;383;48.766;9.270;2023-08-01T12:53:01;4.60;;;1.77;;
801;SDS011;383;48.766;9.270;2023-08-01T12:55:28;3.53;;;1.37;;
801;SDS011;383;48.766;9.270;2023-08-01T12:57:55;6.60;;;3.00;;
801;SDS011;383;48.766;9.270;2023-08-01T13:00:23;4.13;;;1.57;;
801;SDS011;383;48.766;9.270;2023-08-01T13:02:49;5.80;;;1.77;;
801;SDS011;383;48.766;9.270;2023-08-01T13:05:16;3.30;;;1.60;;
801;SDS011;383;48.766;9.270;2023-08-01T13:07:43;2.40;;;1.40;;
801;SDS011;383;48.766;9.270;2023-08-01T13:10:10;5.17;;;1.70;;
801;SDS011;383;48.766;9.270;2023-08-01T13:12:37;2.70;;;1.50;;
801;SDS011;383;48.766;9.270;2023-08-01T13:15:04;5.97;;;1.67;;
801;SDS011;383;48.766;9.270;2023-08-01T13:17:33;5.60;;;1.50;;
801;SDS011;383;48.766;9.270;2023-08-01T13:19:59;2.87;;;1.63;;
801;SDS011;383;48.766;9.270;2023-08-01T13:22:31;4.40;;;2.07;;
801;SDS011;383;48.766;9.270;2023-08-01T13:24:57;15.33;;;3.63;;
801;SDS011;383;48.766;9.270;2023-08-01T13:27:24;3.00;;;1.93;;
801;SDS011;383;48.766;9.270;2023-08-01T13:29:51;4.03;;;1.87;;
801;SDS011;383;48.766;9.270;2023-08-01T13:32:19;2.10;;;1.30;;
801;SDS011;383;48.766;9.270;2023-08-01T13:34:47;2.13;;;1.60;;
801;SDS011;383;48.766;9.270;2023-08-01T13:37:14;7.43;;;2.47;;
801;SDS011;383;48.766;9.270;2023-08-01T13:39:40;2.60;;;1.80;;
801;SDS011;383;48.766;9.270;2023-08-01T13:42:07;4.43;;;1.70;;
801;SDS011;383;48.766;9.270;2023-08-01T13:44:34;3.10;;;1.80;;
801;SDS011;383;48.766;9.270;2023-08-01T13:47:00;2.53;;;1.90;;
801;SDS011;383;48.766;9.270;2023-08-01T13:49:28;2.07;;;1.50;;
801;SDS011;383;48.766;9.270;2023-08-01T13:51:56;3.20;;;1.70;;
801;SDS011;383;48.766;9.270;2023-08-01T13:54:23;2.37;;;1.37;;
801;SDS011;383;48.766;9.270;2023-08-01T13:56:50;7.10;;;1.97;;
801;SDS011;383;48.766;9.270;2023-08-01T13:59:20;4.97;;;3.07;;
801;SDS011;383;48.766;9.270;2023-08-01T14:01:47;2.83;;;1.73;;
801;SDS011;383;48.766;9.270;2023-08-01T14:04:14;4.00;;;2.10;;
801;SDS011;383;48.766;9.270;2023-08-01T14:06:40;3.33;;;1.57;;
801;SDS011;383;48.766;9.270;2023-08-01T14:09:09;4.20;;;1.20;;
801;SDS011;383;48.766;9.270;2023-08-01T14:11:35;4.43;;;1.83;;
801;SDS011;383;48.766;9.270;2023-08-01T14:14:02;3.50;;;1.70;;
801;SDS011;383;48.766;9.270;2023-08-01T14:16:29;3.13;;;1.30;;
801;SDS011;383;48.766;9.270;2023-08-01T14:18:56;2.27;;;1.60;;
801;SDS011;383;48.766;9.270;2023-08-01T14:21:24;8.67;;;1.80;;
801;SDS011;383;48.766;9.270;2023-08-01T14:23:51;4.70;;;2.13;;
801;SDS011;383;48.766;9.270;2023-08-01T14:26:19;3.40;;;1.47;;
801;SDS011;383;48.766;9.270;2023-08-01T14:28:46;4.13;;;1.90;;
801;SDS011;383;48.766;9.270;2023-08-01T14:31:13;5.70;;;1.93;;
801;SDS011;383;48.766;9.270;2023-08-01T14:34:07;3.87;;;1.40;;
801;SDS011;383;48.766;9.270;2023-08-01T14:36:34;5.03;;;2.57;;
801;SDS011;383;48.766;9.270;2023-08-01T14:39:00;6.13;;;2.00;;
801;SDS011;383;48.766;9.270;2023-08-01T14:41:30;2.97;;;1.60;;
801;SDS011;383;48.766;9.270;2023-08-01T14:43:56;4.77;;;1.47;;
801;SDS011;383;48.766;9.270;2023-08-01T14:46:23;2.17;;;1.60;;
801;SDS011;383;48.766;9.270;2023-08-01T14:48:50;2.23;;;1.20;;
801;SDS011;383;48.766;9.270;2023-08-01T14:51:18;5.50;;;1.60;;
801;SDS011;383;48.766;9.270;2023-08-01T14:53:44;5.93;;;3.20;;
801;SDS011;383;48.766;9.270;2023-08-01T14:56:11;2.20;;;1.50;;
801;SDS011;383;48.766;9.270;2023-08-01T14:58:39;3.80;;;1.80;;
801;SDS011;383;48.766;9.270;2023-08-01T15:01:11;3.33;;;1.70;;
801;SDS011;383;48.766;9.270;2023-08-01T15:03:38;2.70;;;1.70;;
801;SDS011;383;48.766;9.270;2023-08-01T15:06:05;4.53;;;1.53;;
801;SDS011;383;48.766;9.270;2023-08-01T15:08:33;7.90;;;2.37;;
801;SDS011;383;48.766;9.270;2023-08-01T15:11:02;2.27;;;1.37;;
801;SDS011;383;48.766;9.270;2023-08-01T15:13:30;5.73;;;2.23;;
801;SDS011;383;48.766;9.270;2023-08-01T15:15:58;2.83;;;1.33;;
801;SDS011;383;48.766;9.270;2023-08-01T15:18:25;3.53;;;1.63;;
801;SDS011;383;48.766;9.270;2023-08-01T15:20:51;1.83;;;1.33;;
801;SDS011;383;48.766;9.270;2023-08-01T15:23:18;3.83;;;1.70;;
801;SDS011;383;48.766;9.270;2023-08-01T15:25:50;2.30;;;1.50;;
801;SDS011;383;48.766;9.270;2023-08-01T15:28:18;6.30;;;2.30;;
801;SDS011;383;48.766;9.270;2023-08-01T15:30:45;8.03;;;2.27;;
801;SDS011;383;48.766;9.270;2023-08-01T15:33:13;2.23;;;1.60;;
801;SDS011;383;48.766;9.270;2023-08-01T15:35:40;2.50;;;1.70;;
801;SDS011;383;48.766;9.270;2023-08-01T15:38:07;2.77;;;1.50;;
801;SDS011;383;48.766;9.270;2023-08-01T15:40:34;4.40;;;2.03;;